Valdosta, GA (31601)

3:21 PM EDT on August 31, 2015 (GMT -0400)
Audio Video and Security Inc. | | Change Station
CLOSE
Current Station
Personal Weather Station
Location: Valdosta, GA
Elevation: 220 ft
Nearby Weather Stations

Elev 220 ft 30.81 °N, 83.32 °W | Updated 20 seconds ago

Mostly Cloudy
Mostly Cloudy
91.6 °F
Feels Like 96 °F
N
4.5
Wind Variable Wind from SE
Gusts 6.9 mph

Today
High -- | Low -- °F
--% Chance of Precip.
Yesterday
High -- | Low -- °F
Precip. -- in
7:08 AM 7:57 PM
Waning Gibbous, 94% visible
Pressure 30.08 in
Visibility 10.0 miles
Clouds Mostly Cloudy 4100 ft
Heat Index 96 °F
Dew Point 68 °F
Humidity 46%
Rainfall 0.00 in
Snow Depth Not available.
UV 6 out of 12
Pollen 8.20 out of 12
Air Quality Not available.
Flu Activity Not available.
METAR KVLD 311853Z VRB03KT 10SM BKN041 32/22 A3006 RMK AO2 SLP186 T03170217
Pressure 30.08 in
Visibility 10.0 miles
Clouds Mostly Cloudy 4100 ft
Heat Index 96 °F
Dew Point 68 °F
Humidity 46%
Rainfall 0.00 in
Snow Depth Not available.
UV 6 out of 12
Pollen 8.20 out of 12
Air Quality Not available.
Flu Activity Not available.
METAR KVLD 311853Z VRB03KT 10SM BKN041 32/22 A3006 RMK AO2 SLP186 T03170217

10-Day Weather Forecast

×

Almanac

Astronomy

Aug. 31, 2015 Rise Set
Actual Time
Civil Twilight
Nautical Twilight
Astronomical Twilight
Moon
Length of Visible Light
Length of Day
Tomorrow will be .
, % of the Moon is Illuminated

Today's Extremes

State Highs State Lows

Community

WunderPhotos

Upload Photos

1,851,341 photos uploaded!

WunderBlogs® & News

Nearby

Air Quality

  Air Quality AQ Index Pollutant
Not available.

Snow Depth

Station Depth Elevation

Earthquake Activity

City Distance Mag. Time & Date
Minimum magnitude displayed is 2.5.

Coastal Water Temperatures

Place Temperature

Stations

Nearby Weather Stations

Station Location Temp. Windchill Dew Point Humidity Wind Precip. Elev Updated Type